createdAt,value
2022-10-07T00:00:13.168Z,1021.56
2022-10-07T00:01:13.730Z,1021.54
2022-10-07T00:02:13.723Z,1021.56
2022-10-07T00:03:13.672Z,1021.52
2022-10-07T00:04:13.862Z,1021.52
2022-10-07T00:05:13.990Z,1021.56
2022-10-07T00:06:14.680Z,1021.44
2022-10-07T00:07:14.692Z,1021.44
2022-10-07T00:08:14.480Z,1021.44
2022-10-07T00:09:14.622Z,1021.41
2022-10-07T00:10:14.777Z,1021.48
2022-10-07T00:11:15.678Z,1021.46
2022-10-07T00:12:15.709Z,1021.48
2022-10-07T00:13:16.178Z,1021.37
2022-10-07T00:14:15.554Z,1021.41
2022-10-07T00:15:15.705Z,1021.41
2022-10-07T00:16:15.964Z,1021.38
2022-10-07T00:17:16.675Z,1021.37
2022-10-07T00:18:16.185Z,1021.34
2022-10-07T00:19:16.361Z,1021.30
2022-10-07T00:20:17.178Z,1021.34
2022-10-07T00:21:16.699Z,1021.34
2022-10-07T00:22:17.684Z,1021.34
2022-10-07T00:23:17.072Z,1021.36
2022-10-07T00:24:17.277Z,1021.35
2022-10-07T00:25:17.439Z,1021.24
2022-10-07T00:26:17.581Z,1021.19
2022-10-07T00:27:18.680Z,1021.22
2022-10-07T00:28:18.003Z,1021.18
2022-10-07T00:29:18.201Z,1021.16
2022-10-07T00:30:18.374Z,1021.09
2022-10-07T00:31:18.626Z,1021.13
2022-10-07T00:32:18.674Z,1021.07
2022-10-07T00:33:18.790Z,1021.04
2022-10-07T00:34:18.955Z,1020.95
2022-10-07T00:35:19.088Z,1020.92
2022-10-07T00:36:19.240Z,1020.91
2022-10-07T00:37:20.194Z,1020.84
2022-10-07T00:38:20.596Z,1020.82
2022-10-07T00:39:20.685Z,1020.80
2022-10-07T00:40:19.923Z,1020.77
2022-10-07T00:41:20.057Z,1020.78
2022-10-07T00:42:20.195Z,1020.75
2022-10-07T00:43:21.203Z,1020.63
2022-10-07T00:44:20.463Z,1020.64
2022-10-07T00:45:21.210Z,1020.56
2022-10-07T00:46:20.750Z,1020.60
2022-10-07T00:47:20.945Z,1020.61
2022-10-07T00:48:21.198Z,1020.58
2022-10-07T00:49:21.212Z,1020.55
2022-10-07T00:50:21.345Z,1020.48
2022-10-07T00:51:22.189Z,1020.49
2022-10-07T00:52:22.188Z,1020.39
2022-10-07T00:53:21.796Z,1020.43
2022-10-07T00:54:21.953Z,1020.42
2022-10-07T00:55:22.077Z,1020.39
2022-10-07T00:56:23.189Z,1020.34
2022-10-07T00:57:22.404Z,1020.29
2022-10-07T00:58:22.516Z,1020.33
2022-10-07T00:59:22.652Z,1020.28
2022-10-07T01:00:22.769Z,1020.22
2022-10-07T01:01:22.923Z,1020.25
2022-10-07T01:02:23.136Z,1020.22
2022-10-07T01:03:23.215Z,1020.24
2022-10-07T01:04:23.461Z,1020.22
2022-10-07T01:05:23.571Z,1020.17
2022-10-07T01:06:23.688Z,1020.19
2022-10-07T01:07:24.201Z,1020.17
2022-10-07T01:08:24.699Z,1020.12
2022-10-07T01:09:24.196Z,1020.18
2022-10-07T01:10:24.331Z,1020.12
2022-10-07T01:11:24.479Z,1020.10
2022-10-07T01:12:24.636Z,1020.06
2022-10-07T01:13:24.768Z,1020.08
2022-10-07T01:14:24.920Z,1020.03
2022-10-07T01:15:25.057Z,1020.02
2022-10-07T01:16:25.286Z,1019.99
2022-10-07T01:17:25.338Z,1019.98
2022-10-07T01:18:25.465Z,1020.01
2022-10-07T01:19:26.620Z,1019.89
2022-10-07T01:20:26.697Z,1019.96
2022-10-07T01:21:26.081Z,1019.95
2022-10-07T01:22:26.236Z,1019.95
2022-10-07T01:23:27.197Z,1019.91
2022-10-07T01:24:27.213Z,1019.87
2022-10-07T01:25:26.711Z,1019.93
2022-10-07T01:26:26.844Z,1019.91
2022-10-07T01:27:27.693Z,1019.86
2022-10-07T01:28:27.207Z,1019.89
2022-10-07T01:29:27.336Z,1019.85
2022-10-07T01:30:28.296Z,1019.80
2022-10-07T01:31:27.704Z,1019.79
2022-10-07T01:32:27.820Z,1019.86
2022-10-07T01:33:28.209Z,1019.85
2022-10-07T01:34:28.069Z,1019.79
2022-10-07T01:35:29.196Z,1019.84
2022-10-07T01:36:28.418Z,1019.74
2022-10-07T01:37:28.662Z,1019.68
2022-10-07T01:38:29.787Z,1019.76
2022-10-07T01:39:29.730Z,1019.67
2022-10-07T01:40:29.189Z,1019.73
2022-10-07T01:41:29.731Z,1019.75
2022-10-07T01:42:29.479Z,1019.70
2022-10-07T01:43:29.636Z,1019.77
2022-10-07T01:44:30.704Z,1019.66
2022-10-07T01:45:29.940Z,1019.66
2022-10-07T01:46:30.112Z,1019.62
2022-10-07T01:47:30.294Z,1019.61
2022-10-07T01:48:30.453Z,1019.62
2022-10-07T01:49:31.243Z,1019.65
2022-10-07T01:50:30.712Z,1019.60
2022-10-07T01:51:30.961Z,1019.57
2022-10-07T01:52:31.700Z,1019.53
2022-10-07T01:53:31.353Z,1019.58
2022-10-07T01:54:31.482Z,1019.56
2022-10-07T01:55:32.201Z,1019.55
2022-10-07T01:56:31.823Z,1019.50
2022-10-07T01:57:31.952Z,1019.59
2022-10-07T01:58:32.086Z,1019.59
2022-10-07T01:59:32.230Z,1019.60
2022-10-07T02:00:33.205Z,1019.57
2022-10-07T02:01:33.244Z,1019.57
2022-10-07T02:02:32.788Z,1019.51
2022-10-07T02:03:32.986Z,1019.49
2022-10-07T02:04:33.174Z,1019.53
2022-10-07T02:05:34.201Z,1019.51
2022-10-07T02:06:33.562Z,1019.48
2022-10-07T02:07:33.716Z,1019.41
2022-10-07T02:08:33.866Z,1019.41
2022-10-07T02:09:34.225Z,1019.41
2022-10-07T02:10:35.231Z,1019.40
2022-10-07T02:11:34.490Z,1019.29
2022-10-07T02:12:34.613Z,1019.25
2022-10-07T02:13:34.766Z,1019.26
2022-10-07T02:14:34.895Z,1019.31
2022-10-07T02:15:35.298Z,1019.26
2022-10-07T02:16:35.708Z,1019.22
2022-10-07T02:17:35.324Z,1019.23
2022-10-07T02:18:35.568Z,1019.23
2022-10-07T02:19:35.712Z,1019.18
2022-10-07T02:20:35.871Z,1019.18
2022-10-07T02:21:35.995Z,1019.14
2022-10-07T02:22:36.139Z,1019.15
2022-10-07T02:23:37.229Z,1019.15
2022-10-07T02:24:37.209Z,1019.13
2022-10-07T02:25:36.718Z,1019.09
2022-10-07T02:26:36.849Z,1019.08
2022-10-07T02:27:36.951Z,1019.05
2022-10-07T02:28:37.157Z,1019.03
2022-10-07T02:29:37.212Z,1018.96
2022-10-07T02:30:37.327Z,1018.99
2022-10-07T02:31:37.491Z,1019.02
2022-10-07T02:32:37.619Z,1018.92
2022-10-07T02:33:37.862Z,1018.95
2022-10-07T02:34:37.988Z,1018.86
2022-10-07T02:35:38.113Z,1018.90
2022-10-07T02:36:38.280Z,1018.91
2022-10-07T02:37:38.428Z,1018.84
2022-10-07T02:38:38.608Z,1018.84
2022-10-07T02:39:38.772Z,1018.86
2022-10-07T02:40:39.712Z,1018.79
2022-10-07T02:41:39.081Z,1018.82
2022-10-07T02:42:39.731Z,1018.77
2022-10-07T02:43:39.370Z,1018.79
2022-10-07T02:44:40.210Z,1018.81
2022-10-07T02:45:40.743Z,1018.76
2022-10-07T02:46:39.932Z,1018.77
2022-10-07T02:47:40.125Z,1018.74
2022-10-07T02:48:41.293Z,1018.72
2022-10-07T02:49:40.515Z,1018.72
2022-10-07T02:50:41.212Z,1018.68
2022-10-07T02:51:41.716Z,1018.76
2022-10-07T02:52:40.962Z,1018.68
2022-10-07T02:53:41.129Z,1018.77
2022-10-07T02:54:42.216Z,1018.64
2022-10-07T02:55:41.470Z,1018.60
2022-10-07T02:56:41.614Z,1018.65
2022-10-07T02:57:42.138Z,1018.62
2022-10-07T02:58:41.919Z,1018.60
2022-10-07T02:59:42.060Z,1018.62
2022-10-07T03:00:42.218Z,1018.64
2022-10-07T03:01:43.304Z,1018.59
2022-10-07T03:02:42.617Z,1018.52
2022-10-07T03:03:43.779Z,1018.52
2022-10-07T03:04:43.726Z,1018.54
2022-10-07T03:05:43.721Z,1018.54
2022-10-07T03:06:44.246Z,1018.57
2022-10-07T03:07:43.694Z,1018.53
2022-10-07T03:08:44.219Z,1018.54
2022-10-07T03:09:43.749Z,1018.53
2022-10-07T03:10:43.907Z,1018.54
2022-10-07T03:11:44.033Z,1018.51
2022-10-07T03:12:44.237Z,1018.54
2022-10-07T03:13:44.409Z,1018.49
2022-10-07T03:14:44.565Z,1018.51
2022-10-07T03:15:45.274Z,1018.52
2022-10-07T03:16:44.919Z,1018.47
2022-10-07T03:17:45.653Z,1018.42
2022-10-07T03:18:45.227Z,1018.42
2022-10-07T03:19:45.410Z,1018.37
2022-10-07T03:20:45.552Z,1018.41
2022-10-07T03:21:45.694Z,1018.36
2022-10-07T03:22:45.851Z,1018.45
2022-10-07T03:23:46.011Z,1018.38
2022-10-07T03:24:46.237Z,1018.39
2022-10-07T03:25:47.227Z,1018.29
2022-10-07T03:26:46.614Z,1018.31
2022-10-07T03:27:47.117Z,1018.37
2022-10-07T03:28:47.734Z,1018.37
2022-10-07T03:29:47.137Z,1018.41
2022-10-07T03:30:48.278Z,1018.31
2022-10-07T03:31:47.454Z,1018.40
2022-10-07T03:32:47.624Z,1018.33
2022-10-07T03:33:48.722Z,1018.35
2022-10-07T03:34:48.010Z,1018.38
2022-10-07T03:35:48.168Z,1018.31
2022-10-07T03:36:49.228Z,1018.29
2022-10-07T03:37:48.516Z,1018.36
2022-10-07T03:38:48.656Z,1018.32
2022-10-07T03:39:49.727Z,1018.35
2022-10-07T03:40:48.952Z,1018.32
2022-10-07T03:41:49.157Z,1018.30
2022-10-07T03:42:50.233Z,1018.29
2022-10-07T03:43:49.522Z,1018.27
2022-10-07T03:44:49.689Z,1018.28
2022-10-07T03:45:49.807Z,1018.24
2022-10-07T03:46:49.984Z,1018.20
2022-10-07T03:47:50.141Z,1018.22
2022-10-07T03:48:50.300Z,1018.24
2022-10-07T03:49:50.460Z,1018.23
2022-10-07T03:50:50.630Z,1018.24
2022-10-07T03:51:50.805Z,1018.23
2022-10-07T03:52:50.945Z,1018.18
2022-10-07T03:53:51.086Z,1018.22
2022-10-07T03:54:51.737Z,1018.17
2022-10-07T03:55:52.231Z,1018.14
2022-10-07T03:56:51.606Z,1018.17
2022-10-07T03:57:55.644Z,1018.15
2022-10-07T03:58:53.949Z,1018.15
2022-10-07T03:59:52.169Z,1018.16
2022-10-07T04:00:53.259Z,1018.15
2022-10-07T04:01:52.809Z,1018.11
2022-10-07T04:02:52.779Z,1018.16
2022-10-07T04:03:52.866Z,1018.18
2022-10-07T04:04:53.754Z,1018.14
2022-10-07T04:05:53.131Z,1018.18
2022-10-07T04:06:54.234Z,1018.13
2022-10-07T04:07:53.775Z,1018.15
2022-10-07T04:08:53.747Z,1018.10
2022-10-07T04:09:53.896Z,1018.09
2022-10-07T04:10:54.031Z,1018.09
2022-10-07T04:11:54.758Z,1018.16
2022-10-07T04:12:54.377Z,1018.09
2022-10-07T04:13:54.552Z,1018.10
2022-10-07T04:14:55.237Z,1018.04
2022-10-07T04:15:54.971Z,1018.08
2022-10-07T04:16:55.016Z,1018.02
2022-10-07T04:17:55.175Z,1018.07
2022-10-07T04:18:55.751Z,1018.02
2022-10-07T04:19:55.510Z,1018.04
2022-10-07T04:20:55.680Z,1018.04
2022-10-07T04:21:55.861Z,1018.00
2022-10-07T04:22:57.739Z,1018.04
2022-10-07T04:23:56.248Z,1018.03
2022-10-07T04:24:56.503Z,1018.00
2022-10-07T04:25:56.561Z,1018.02
2022-10-07T04:26:57.241Z,1017.94
2022-10-07T04:27:56.875Z,1017.91
2022-10-07T04:28:57.093Z,1017.98
2022-10-07T04:29:57.742Z,1017.87
2022-10-07T04:30:58.247Z,1017.89
2022-10-07T04:31:57.754Z,1017.98
2022-10-07T04:32:57.683Z,1017.89
2022-10-07T04:33:57.835Z,1017.94
2022-10-07T04:34:58.741Z,1017.94
2022-10-07T04:35:58.137Z,1017.95
2022-10-07T04:36:58.298Z,1017.95
2022-10-07T04:37:58.487Z,1018.00
2022-10-07T04:38:58.668Z,1017.96
2022-10-07T04:40:01.042Z,1017.92
2022-10-07T04:41:00.741Z,1017.97
2022-10-07T04:41:59.745Z,1017.95
2022-10-07T04:42:59.755Z,1017.86
2022-10-07T04:44:00.244Z,1017.91
2022-10-07T04:44:59.736Z,1017.90
2022-10-07T04:46:00.260Z,1017.85
2022-10-07T04:47:00.078Z,1017.83
2022-10-07T04:48:00.257Z,1017.89
2022-10-07T04:49:00.399Z,1017.86
2022-10-07T04:50:01.246Z,1017.90
2022-10-07T04:51:00.772Z,1017.89
2022-10-07T04:52:00.940Z,1017.83
2022-10-07T04:53:01.113Z,1017.86
2022-10-07T04:54:01.764Z,1017.87
2022-10-07T04:55:02.248Z,1017.82
2022-10-07T04:56:01.619Z,1017.81
2022-10-07T04:57:01.853Z,1017.78
2022-10-07T04:58:01.975Z,1017.81
2022-10-07T04:59:02.120Z,1017.75
2022-10-07T05:00:02.273Z,1017.75
2022-10-07T05:01:02.464Z,1017.78
2022-10-07T05:02:02.671Z,1017.70
2022-10-07T05:03:02.857Z,1017.73
2022-10-07T05:04:03.097Z,1017.75
2022-10-07T05:05:03.253Z,1017.74
2022-10-07T05:06:05.525Z,1017.73
2022-10-07T05:07:04.533Z,1017.68
2022-10-07T05:08:03.751Z,1017.59
2022-10-07T05:09:03.976Z,1017.58
2022-10-07T05:10:04.235Z,1017.65
2022-10-07T05:11:04.393Z,1017.62
2022-10-07T05:12:04.516Z,1017.65
2022-10-07T05:13:04.643Z,1017.63
2022-10-07T05:14:05.754Z,1017.63
2022-10-07T05:15:05.748Z,1017.59
2022-10-07T05:16:05.167Z,1017.63
2022-10-07T05:17:06.250Z,1017.57
2022-10-07T05:18:05.512Z,1017.58
2022-10-07T05:19:05.639Z,1017.61
2022-10-07T05:20:05.879Z,1017.58
2022-10-07T05:21:06.019Z,1017.57
2022-10-07T05:22:06.161Z,1017.55
2022-10-07T05:23:07.251Z,1017.58
2022-10-07T05:24:06.772Z,1017.55
2022-10-07T05:25:06.652Z,1017.56
2022-10-07T05:26:07.767Z,1017.54
2022-10-07T05:27:07.758Z,1017.53
2022-10-07T05:28:07.291Z,1017.52
2022-10-07T05:29:07.375Z,1017.50
2022-10-07T05:30:07.500Z,1017.54
2022-10-07T05:31:07.793Z,1017.55
2022-10-07T05:32:08.808Z,1017.53
2022-10-07T05:33:08.067Z,1017.49
2022-10-07T05:34:08.270Z,1017.47
2022-10-07T05:35:08.400Z,1017.48
2022-10-07T05:36:08.544Z,1017.52
2022-10-07T05:37:08.675Z,1017.54
2022-10-07T05:38:08.821Z,1017.45
2022-10-07T05:39:08.965Z,1017.50
2022-10-07T05:40:09.111Z,1017.43
2022-10-07T05:41:09.283Z,1017.42
2022-10-07T05:42:09.430Z,1017.50
2022-10-07T05:43:09.565Z,1017.43
2022-10-07T05:44:09.693Z,1017.42
2022-10-07T05:45:09.814Z,1017.40
2022-10-07T05:46:10.053Z,1017.41
2022-10-07T05:47:10.087Z,1017.42
2022-10-07T05:48:10.221Z,1017.41
2022-10-07T05:49:10.344Z,1017.36
2022-10-07T05:50:11.258Z,1017.42
2022-10-07T05:51:10.748Z,1017.44
2022-10-07T05:52:11.765Z,1017.29
2022-10-07T05:53:11.091Z,1017.34
2022-10-07T05:54:11.212Z,1017.25
2022-10-07T05:55:11.449Z,1017.34
2022-10-07T05:56:12.284Z,1017.30
2022-10-07T05:57:11.922Z,1017.24
2022-10-07T05:58:12.763Z,1017.23
2022-10-07T05:59:12.245Z,1017.21
2022-10-07T06:00:13.289Z,1017.19
2022-10-07T06:01:14.247Z,1017.13
2022-10-07T06:02:13.964Z,1017.13
2022-10-07T06:03:13.795Z,1017.10
2022-10-07T06:04:13.202Z,1017.05
2022-10-07T06:05:14.285Z,1017.00
2022-10-07T06:06:14.262Z,1017.02
2022-10-07T06:07:18.204Z,1017.01
2022-10-07T06:08:15.802Z,1016.89
2022-10-07T06:09:14.034Z,1016.82
2022-10-07T06:10:14.125Z,1016.80
2022-10-07T06:11:14.366Z,1016.81
2022-10-07T06:12:15.263Z,1016.73
2022-10-07T06:13:15.263Z,1016.54
2022-10-07T06:14:14.875Z,1016.47
2022-10-07T06:15:14.987Z,1016.48
2022-10-07T06:16:15.161Z,1016.43
2022-10-07T06:17:15.303Z,1016.49
2022-10-07T06:18:16.268Z,1016.43
2022-10-07T06:19:15.644Z,1016.40
2022-10-07T06:20:15.780Z,1016.44
2022-10-07T06:21:15.958Z,1016.34
2022-10-07T06:22:16.085Z,1016.28
2022-10-07T06:23:16.319Z,1016.13
2022-10-07T06:24:16.786Z,1015.86
2022-10-07T06:25:16.780Z,1015.15
2022-10-07T06:26:16.946Z,1014.49
2022-10-07T06:27:17.078Z,1013.97
2022-10-07T06:28:17.271Z,1013.42
2022-10-07T06:29:17.339Z,1013.07
2022-10-07T06:30:18.277Z,1012.63
2022-10-07T06:31:17.739Z,1012.33
2022-10-07T06:32:18.290Z,1012.19
2022-10-07T06:33:18.770Z,1011.81
2022-10-07T06:34:18.287Z,1011.66
2022-10-07T06:35:18.420Z,1011.46
2022-10-07T06:36:18.556Z,1011.45
2022-10-07T06:37:18.781Z,1011.24
2022-10-07T06:38:18.956Z,1011.03
2022-10-07T06:39:19.775Z,1010.96
2022-10-07T06:40:20.292Z,1010.89
2022-10-07T06:41:19.435Z,1010.67
2022-10-07T06:42:19.569Z,1010.47
2022-10-07T06:43:19.684Z,1010.23
2022-10-07T06:44:19.826Z,1010.11
2022-10-07T06:45:19.980Z,1009.95
2022-10-07T06:46:20.217Z,1009.85
2022-10-07T06:47:20.263Z,1009.65
2022-10-07T06:48:21.276Z,1009.67
2022-10-07T06:49:20.788Z,1009.43
2022-10-07T06:50:21.775Z,1009.34
2022-10-07T06:51:21.797Z,1009.30
2022-10-07T06:52:21.783Z,1009.14
2022-10-07T06:53:22.284Z,1008.96
2022-10-07T06:54:21.537Z,1009.02
2022-10-07T06:55:21.707Z,1008.82
2022-10-07T06:56:21.885Z,1008.65
2022-10-07T06:57:44.226Z,1008.59
2022-10-07T06:58:24.778Z,1008.48
2022-10-07T06:59:22.427Z,1008.37
2022-10-07T07:00:22.798Z,1008.34
2022-10-07T07:01:22.858Z,1008.21
2022-10-07T07:02:23.860Z,1008.27
2022-10-07T07:03:23.203Z,1008.20
2022-10-07T07:04:23.348Z,1008.20
2022-10-07T07:05:23.799Z,1008.08
2022-10-07T07:06:23.706Z,1008.04
2022-10-07T07:07:24.837Z,1007.98
2022-10-07T07:08:23.977Z,1008.00
2022-10-07T07:09:24.782Z,1008.01
2022-10-07T07:10:24.306Z,1007.89
2022-10-07T07:11:25.306Z,1007.91
2022-10-07T07:12:24.656Z,1007.74
2022-10-07T07:13:25.284Z,1007.73
2022-10-07T07:14:24.899Z,1007.67
2022-10-07T07:15:25.055Z,1007.65
2022-10-07T07:16:25.241Z,1007.61
2022-10-07T07:17:26.317Z,1007.65
2022-10-07T07:18:25.558Z,1007.52
2022-10-07T07:19:25.681Z,1007.48
2022-10-07T07:20:25.889Z,1007.42
2022-10-07T07:21:26.058Z,1007.47
2022-10-07T07:22:26.187Z,1007.40
2022-10-07T07:23:27.292Z,1007.43
2022-10-07T07:24:26.525Z,1007.49
2022-10-07T07:25:26.719Z,1007.44
2022-10-07T07:26:26.957Z,1007.39
2022-10-07T07:27:27.815Z,1007.52
2022-10-07T07:28:27.860Z,1007.62
2022-10-07T07:29:28.291Z,1007.51
2022-10-07T07:30:28.315Z,1007.44
2022-10-07T07:31:28.805Z,1007.40
2022-10-07T07:32:28.172Z,1007.25
2022-10-07T07:33:28.310Z,1007.21
2022-10-07T07:34:28.449Z,1007.14
2022-10-07T07:35:29.296Z,1007.17
2022-10-07T07:36:29.298Z,1007.13
2022-10-07T07:37:28.948Z,1007.04
2022-10-07T07:38:29.805Z,1007.20
2022-10-07T07:39:29.801Z,1007.28
2022-10-07T07:40:29.540Z,1007.17
2022-10-07T07:41:29.675Z,1007.23
2022-10-07T07:42:29.815Z,1007.19
2022-10-07T07:43:29.941Z,1007.10
2022-10-07T07:44:34.020Z,1007.04
2022-10-07T07:45:32.442Z,1006.93
2022-10-07T07:46:30.520Z,1006.97
2022-10-07T07:47:30.653Z,1006.92
2022-10-07T07:48:30.896Z,1006.89
2022-10-07T07:49:31.321Z,1006.82
2022-10-07T07:50:31.181Z,1006.92
2022-10-07T07:51:31.805Z,1007.12
2022-10-07T07:52:31.530Z,1007.10
2022-10-07T07:53:31.681Z,1007.12
2022-10-07T07:54:31.838Z,1007.19
2022-10-07T07:55:31.973Z,1007.28
2022-10-07T07:56:32.105Z,1007.39
2022-10-07T07:57:32.312Z,1007.52
2022-10-07T07:58:32.403Z,1007.71
2022-10-07T07:59:33.641Z,1007.82
2022-10-07T08:00:33.808Z,1007.92
2022-10-07T08:01:33.251Z,1007.91
2022-10-07T08:02:34.318Z,1007.93
2022-10-07T08:03:33.398Z,1007.92
2022-10-07T08:04:33.818Z,1007.79
2022-10-07T08:05:33.808Z,1007.61
2022-10-07T08:06:34.825Z,1007.62
2022-10-07T08:07:34.806Z,1007.61
2022-10-07T08:08:34.407Z,1007.59
2022-10-07T08:09:35.304Z,1007.54
2022-10-07T08:10:35.323Z,1007.48
2022-10-07T08:11:35.835Z,1007.50
2022-10-07T08:12:35.814Z,1007.55
2022-10-07T08:13:35.288Z,1007.64
2022-10-07T08:14:36.335Z,1007.70
2022-10-07T08:15:36.357Z,1007.52
2022-10-07T08:16:36.346Z,1007.52
2022-10-07T08:17:35.992Z,1007.43
2022-10-07T08:18:36.137Z,1007.42
2022-10-07T08:19:36.813Z,1007.44
2022-10-07T08:20:36.448Z,1007.33
2022-10-07T08:21:37.322Z,1007.32
2022-10-07T08:22:37.335Z,1007.32
2022-10-07T08:23:36.844Z,1007.26
2022-10-07T08:24:38.332Z,1007.15
2022-10-07T08:25:37.185Z,1007.15
2022-10-07T08:26:37.419Z,1007.13
2022-10-07T08:27:37.563Z,1007.13
2022-10-07T08:28:37.896Z,1007.04
2022-10-07T08:29:38.818Z,1007.17
2022-10-07T08:30:38.064Z,1007.11
2022-10-07T08:31:38.213Z,1007.10
2022-10-07T08:32:38.385Z,1007.18
2022-10-07T08:33:38.836Z,1007.36
2022-10-07T08:34:39.337Z,1007.48
2022-10-07T08:35:39.822Z,1007.60
2022-10-07T08:36:39.818Z,1007.60
2022-10-07T08:37:39.846Z,1007.48
2022-10-07T08:38:39.481Z,1007.43
2022-10-07T08:39:39.645Z,1007.37
2022-10-07T08:40:39.807Z,1007.37
2022-10-07T08:41:39.942Z,1007.29
2022-10-07T08:42:40.823Z,1007.28
2022-10-07T08:43:40.322Z,1007.19
2022-10-07T08:44:40.476Z,1007.17
2022-10-07T08:45:40.636Z,1007.24
2022-10-07T08:46:41.336Z,1007.26
2022-10-07T08:47:40.939Z,1007.29
2022-10-07T08:48:41.073Z,1007.22
2022-10-07T08:49:41.215Z,1007.28
2022-10-07T08:50:41.841Z,1007.40
2022-10-07T08:51:41.463Z,1007.36
2022-10-07T08:52:41.633Z,1007.35
2022-10-07T08:53:42.338Z,1007.34
2022-10-07T08:54:41.947Z,1007.33
2022-10-07T08:55:42.080Z,1007.41
2022-10-07T08:56:42.213Z,1007.59
2022-10-07T08:57:42.653Z,1007.85
2022-10-07T08:58:42.526Z,1008.01
2022-10-07T08:59:43.330Z,1008.22
2022-10-07T09:00:42.803Z,1008.41
2022-10-07T09:01:43.854Z,1008.60
2022-10-07T09:02:43.395Z,1008.78
2022-10-07T09:03:43.382Z,1008.93
2022-10-07T09:04:43.496Z,1009.17
2022-10-07T09:05:43.732Z,1009.36
2022-10-07T09:06:44.834Z,1009.54
2022-10-07T09:07:45.090Z,1009.64
2022-10-07T09:08:44.296Z,1009.77
2022-10-07T09:09:44.421Z,1009.86
2022-10-07T09:10:45.366Z,1009.87
2022-10-07T09:11:45.342Z,1010.00
2022-10-07T09:12:44.845Z,1010.08
2022-10-07T09:13:45.006Z,1010.04
2022-10-07T09:14:45.838Z,1010.17
2022-10-07T09:15:45.919Z,1010.15
2022-10-07T09:16:46.336Z,1010.21
2022-10-07T09:17:46.701Z,1009.99
2022-10-07T09:18:45.857Z,1009.96
2022-10-07T09:19:46.016Z,1009.91
2022-10-07T09:20:46.025Z,1009.89
2022-10-07T09:21:46.142Z,1009.77
2022-10-07T09:22:47.301Z,1009.75
2022-10-07T09:23:47.359Z,1009.70
2022-10-07T09:24:47.350Z,1009.78
2022-10-07T09:25:47.342Z,1009.72
2022-10-07T09:26:46.842Z,1009.71
2022-10-07T09:27:48.155Z,1009.62
2022-10-07T09:28:47.935Z,1009.66
2022-10-07T09:29:47.315Z,1009.56
2022-10-07T09:30:48.390Z,1009.59
2022-10-07T09:31:47.763Z,1009.45
2022-10-07T09:32:47.860Z,1009.45
2022-10-07T09:33:48.860Z,1009.43
2022-10-07T09:34:48.361Z,1009.51
2022-10-07T09:35:52.685Z,1009.48
2022-10-07T09:36:50.352Z,1009.54
2022-10-07T09:37:49.018Z,1009.51
2022-10-07T09:38:49.026Z,1009.70
2022-10-07T09:39:49.284Z,1009.72
2022-10-07T09:40:49.390Z,1009.90
2022-10-07T09:41:49.559Z,1009.94
2022-10-07T09:42:49.729Z,1010.01
2022-10-07T09:43:50.850Z,1010.07
2022-10-07T09:44:50.360Z,1010.11
2022-10-07T09:45:50.260Z,1010.13
2022-10-07T09:46:51.415Z,1010.25
2022-10-07T09:47:50.592Z,1010.28
2022-10-07T09:48:51.333Z,1010.38
2022-10-07T09:49:51.988Z,1010.37
2022-10-07T09:50:51.375Z,1010.39
2022-10-07T09:51:51.323Z,1010.46
2022-10-07T09:52:51.499Z,1010.50
2022-10-07T09:53:51.661Z,1010.44
2022-10-07T09:54:51.830Z,1010.45
2022-10-07T09:55:52.006Z,1010.38
2022-10-07T09:56:52.910Z,1010.33
2022-10-07T09:57:52.301Z,1010.38
2022-10-07T09:58:52.428Z,1010.31
2022-10-07T09:59:53.364Z,1010.35
2022-10-07T10:00:52.769Z,1010.39
2022-10-07T10:01:53.919Z,1010.45
2022-10-07T10:02:54.252Z,1010.47
2022-10-07T10:03:54.431Z,1010.47
2022-10-07T10:04:53.542Z,1010.44
2022-10-07T10:05:53.721Z,1010.40
2022-10-07T10:06:53.876Z,1010.35
2022-10-07T10:07:54.024Z,1010.25
2022-10-07T10:08:54.861Z,1010.16
2022-10-07T10:09:54.382Z,1010.05
2022-10-07T10:10:54.550Z,1010.02
2022-10-07T10:11:54.734Z,1009.88
2022-10-07T10:12:55.360Z,1009.84
2022-10-07T10:13:55.002Z,1009.76
2022-10-07T10:14:55.409Z,1009.62
2022-10-07T10:15:55.877Z,1009.58
2022-10-07T10:16:55.880Z,1009.67
2022-10-07T10:17:55.805Z,1009.52
2022-10-07T10:18:55.971Z,1009.41
2022-10-07T10:19:56.161Z,1009.33
2022-10-07T10:20:56.301Z,1009.29
2022-10-07T10:21:56.445Z,1009.29
2022-10-07T10:22:56.587Z,1009.19
2022-10-07T10:23:56.750Z,1009.20
2022-10-07T10:24:56.895Z,1009.10
2022-10-07T10:25:57.379Z,1009.06
2022-10-07T10:26:57.250Z,1009.02
2022-10-07T10:27:57.930Z,1009.01
2022-10-07T10:28:57.550Z,1008.87
2022-10-07T10:29:57.704Z,1008.85
2022-10-07T10:30:57.891Z,1008.81
2022-10-07T10:31:58.084Z,1008.80
2022-10-07T10:32:58.208Z,1008.75
2022-10-07T10:33:59.326Z,1008.72
2022-10-07T10:34:58.564Z,1008.73
2022-10-07T10:35:58.787Z,1008.71
2022-10-07T10:36:59.870Z,1008.69
2022-10-07T10:37:59.110Z,1008.63
2022-10-07T10:38:59.234Z,1008.55
2022-10-07T10:39:59.360Z,1008.49
2022-10-07T10:41:00.377Z,1008.47
2022-10-07T10:41:59.711Z,1008.48
2022-10-07T10:42:59.910Z,1008.49
2022-10-07T10:44:00.873Z,1008.54
2022-10-07T10:45:00.222Z,1008.47
2022-10-07T10:46:00.877Z,1008.49
2022-10-07T10:47:01.426Z,1008.44
2022-10-07T10:48:00.890Z,1008.44
2022-10-07T10:49:01.909Z,1008.45
2022-10-07T10:50:01.126Z,1008.50
2022-10-07T10:51:01.358Z,1008.56
2022-10-07T10:52:01.477Z,1008.52
2022-10-07T10:53:02.383Z,1008.59
2022-10-07T10:54:01.876Z,1008.53
2022-10-07T10:55:02.884Z,1008.68
2022-10-07T10:56:02.254Z,1008.75
2022-10-07T10:57:02.891Z,1008.94
2022-10-07T10:58:03.383Z,1008.92
2022-10-07T10:59:02.760Z,1009.05
2022-10-07T11:00:02.909Z,1009.11
2022-10-07T11:01:03.034Z,1009.20
2022-10-07T11:02:03.365Z,1009.28
2022-10-07T11:03:04.455Z,1009.42
2022-10-07T11:04:03.894Z,1009.47
2022-10-07T11:05:04.409Z,1009.51
2022-10-07T11:06:04.885Z,1009.58
2022-10-07T11:07:04.885Z,1009.57
2022-10-07T11:08:05.388Z,1009.58
2022-10-07T11:09:04.897Z,1009.73
2022-10-07T11:10:04.762Z,1009.75
2022-10-07T11:11:05.385Z,1009.76
2022-10-07T11:12:05.116Z,1009.86
2022-10-07T11:13:05.246Z,1009.81
2022-10-07T11:14:05.404Z,1009.91
2022-10-07T11:15:05.557Z,1009.84
2022-10-07T11:16:05.725Z,1009.90
2022-10-07T11:17:06.412Z,1009.93
2022-10-07T11:18:06.052Z,1009.96
2022-10-07T11:19:06.188Z,1010.01
2022-10-07T11:20:06.890Z,1009.98
2022-10-07T11:21:06.517Z,1010.01
2022-10-07T11:22:06.666Z,1009.98
2022-10-07T11:23:07.395Z,1009.99
2022-10-07T11:24:06.972Z,1010.05
2022-10-07T11:25:07.891Z,1010.09
2022-10-07T11:26:07.332Z,1010.06
2022-10-07T11:27:07.508Z,1010.09
2022-10-07T11:28:07.668Z,1009.99
2022-10-07T11:29:07.891Z,1010.05
2022-10-07T11:30:08.892Z,1010.15
2022-10-07T11:31:08.360Z,1010.12
2022-10-07T11:32:09.395Z,1010.16
2022-10-07T11:33:08.655Z,1010.14
2022-10-07T11:34:08.813Z,1010.12
2022-10-07T11:35:09.043Z,1010.15
2022-10-07T11:36:09.287Z,1010.15
2022-10-07T11:37:09.408Z,1010.14
2022-10-07T11:38:09.565Z,1010.17
2022-10-07T11:39:09.704Z,1010.17
2022-10-07T11:40:09.842Z,1010.19
2022-10-07T11:41:09.978Z,1010.23
2022-10-07T11:42:10.221Z,1010.13
2022-10-07T11:43:10.356Z,1010.17
2022-10-07T11:44:10.908Z,1010.14
2022-10-07T11:45:10.662Z,1010.13
2022-10-07T11:46:11.904Z,1010.09
2022-10-07T11:47:12.015Z,1010.10
2022-10-07T11:48:11.257Z,1010.10
2022-10-07T11:49:11.418Z,1010.06
2022-10-07T11:50:11.591Z,1010.10
2022-10-07T11:51:12.400Z,1010.12
2022-10-07T11:52:11.900Z,1010.05
2022-10-07T11:53:12.025Z,1010.10
2022-10-07T11:54:12.172Z,1010.10
2022-10-07T11:55:12.316Z,1010.06
2022-10-07T11:56:12.430Z,1010.06
2022-10-07T11:57:12.613Z,1010.11
2022-10-07T11:58:12.746Z,1010.17
2022-10-07T11:59:12.903Z,1010.09
2022-10-07T12:00:13.074Z,1010.15
2022-10-07T12:01:13.260Z,1010.08
2022-10-07T12:02:15.807Z,1010.19
2022-10-07T12:03:15.448Z,1010.15
2022-10-07T12:04:13.752Z,1010.14
2022-10-07T12:05:13.921Z,1010.07
2022-10-07T12:06:14.078Z,1009.99
2022-10-07T12:07:14.422Z,1009.96